sensor_id;sensor_type;location;lat;lon;timestamp;pressure;altitude;pressure_sealevel;temperature;humidity
59588;BME280;45412;54.472;18.464;2023-01-28T00:01:42;100920.67;;;-1.14;74.86
59588;BME280;45412;54.472;18.464;2023-01-28T00:04:30;100919.68;;;-1.18;75.07
59588;BME280;45412;54.472;18.464;2023-01-28T00:07:18;100914.13;;;-1.20;75.21
59588;BME280;45412;54.472;18.464;2023-01-28T00:10:06;100922.52;;;-1.21;75.28
59588;BME280;45412;54.472;18.464;2023-01-28T00:12:54;100922.20;;;-1.23;75.13
59588;BME280;45412;54.472;18.464;2023-01-28T00:15:42;100921.21;;;-1.27;75.26
59588;BME280;45412;54.472;18.464;2023-01-28T00:18:31;100919.48;;;-1.29;75.36
59588;BME280;45412;54.472;18.464;2023-01-28T00:21:19;100918.48;;;-1.31;75.47
59588;BME280;45412;54.472;18.464;2023-01-28T00:24:07;100921.46;;;-1.32;75.67
59588;BME280;45412;54.472;18.464;2023-01-28T00:26:56;100917.50;;;-1.35;75.58
59588;BME280;45412;54.472;18.464;2023-01-28T00:29:44;100920.41;;;-1.31;75.65
59588;BME280;45412;54.472;18.464;2023-01-28T00:32:32;100918.46;;;-1.29;75.15
59588;BME280;45412;54.472;18.464;2023-01-28T00:35:20;100923.85;;;-1.29;74.78
59588;BME280;45412;54.472;18.464;2023-01-28T00:38:09;100922.48;;;-1.31;74.62
59588;BME280;45412;54.472;18.464;2023-01-28T00:41:28;100917.30;;;-1.32;74.97
59588;BME280;45412;54.472;18.464;2023-01-28T00:44:18;100916.05;;;-1.31;75.20
59588;BME280;45412;54.472;18.464;2023-01-28T00:47:07;100916.72;;;-1.29;74.97
59588;BME280;45412;54.472;18.464;2023-01-28T00:49:55;100915.39;;;-1.33;74.76
59588;BME280;45412;54.472;18.464;2023-01-28T00:52:42;100915.09;;;-1.37;74.93
59588;BME280;45412;54.472;18.464;2023-01-28T00:55:30;100910.55;;;-1.36;75.04
59588;BME280;45412;54.472;18.464;2023-01-28T00:58:19;100915.04;;;-1.33;75.05
59588;BME280;45412;54.472;18.464;2023-01-28T01:01:19;100909.05;;;-1.29;75.16
59588;BME280;45412;54.472;18.464;2023-01-28T01:04:08;100912.30;;;-1.25;74.81
59588;BME280;45412;54.472;18.464;2023-01-28T01:06:56;100909.64;;;-1.22;74.94
59588;BME280;45412;54.472;18.464;2023-01-28T01:09:45;100903.73;;;-1.22;74.34
59588;BME280;45412;54.472;18.464;2023-01-28T01:12:32;100908.66;;;-1.26;74.43
59588;BME280;45412;54.472;18.464;2023-01-28T01:15:21;100909.04;;;-1.28;74.62
59588;BME280;45412;54.472;18.464;2023-01-28T01:18:09;100910.45;;;-1.29;74.92
59588;BME280;45412;54.472;18.464;2023-01-28T01:20:58;100911.65;;;-1.28;75.05
59588;BME280;45412;54.472;18.464;2023-01-28T01:23:46;100908.73;;;-1.30;75.30
59588;BME280;45412;54.472;18.464;2023-01-28T01:26:34;100908.92;;;-1.32;75.20
59588;BME280;45412;54.472;18.464;2023-01-28T01:29:22;100909.46;;;-1.33;75.41
59588;BME280;45412;54.472;18.464;2023-01-28T01:32:10;100913.64;;;-1.32;75.57
59588;BME280;45412;54.472;18.464;2023-01-28T01:34:58;100908.90;;;-1.30;75.58
59588;BME280;45412;54.472;18.464;2023-01-28T01:37:46;100907.67;;;-1.30;75.37
59588;BME280;45412;54.472;18.464;2023-01-28T01:40:34;100905.46;;;-1.33;75.21
59588;BME280;45412;54.472;18.464;2023-01-28T01:43:22;100909.18;;;-1.38;75.15
59588;BME280;45412;54.472;18.464;2023-01-28T01:46:10;100913.25;;;-1.43;75.18
59588;BME280;45412;54.472;18.464;2023-01-28T01:52:13;100920.52;;;-1.39;75.07
59588;BME280;45412;54.472;18.464;2023-01-28T01:55:09;100914.40;;;-1.38;75.09
59588;BME280;45412;54.472;18.464;2023-01-28T01:58:06;100908.64;;;-1.36;74.91
59588;BME280;45412;54.472;18.464;2023-01-28T02:00:55;100906.93;;;-1.39;74.90
59588;BME280;45412;54.472;18.464;2023-01-28T02:06:40;100902.45;;;-1.42;75.00
59588;BME280;45412;54.472;18.464;2023-01-28T02:09:32;100901.73;;;-1.40;75.13
59588;BME280;45412;54.472;18.464;2023-01-28T02:12:28;100905.88;;;-1.38;75.15
59588;BME280;45412;54.472;18.464;2023-01-28T02:15:23;100907.95;;;-1.37;74.86
59588;BME280;45412;54.472;18.464;2023-01-28T02:18:12;100901.90;;;-1.40;75.11
59588;BME280;45412;54.472;18.464;2023-01-28T02:30:39;100902.13;;;-1.20;75.47
59588;BME280;45412;54.472;18.464;2023-01-28T02:33:36;100898.90;;;-1.15;75.39
59588;BME280;45412;54.472;18.464;2023-01-28T02:39:29;100897.89;;;-1.07;75.50
59588;BME280;45412;54.472;18.464;2023-01-28T02:48:04;100892.93;;;-1.01;75.53
59588;BME280;45412;54.472;18.464;2023-01-28T02:51:55;100894.02;;;-1.04;75.15
59588;BME280;45412;54.472;18.464;2023-01-28T02:55:11;100891.16;;;-1.10;75.36
59588;BME280;45412;54.472;18.464;2023-01-28T02:58:25;100887.09;;;-1.16;75.54
59588;BME280;45412;54.472;18.464;2023-01-28T03:01:42;100896.75;;;-1.11;75.93
59588;BME280;45412;54.472;18.464;2023-01-28T03:07:48;100890.73;;;-1.05;75.95
59588;BME280;45412;54.472;18.464;2023-01-28T03:10:37;100887.64;;;-1.07;75.95
59588;BME280;45412;54.472;18.464;2023-01-28T03:13:25;100887.91;;;-1.03;76.09
59588;BME280;45412;54.472;18.464;2023-01-28T03:16:32;100889.94;;;-0.99;75.93
59588;BME280;45412;54.472;18.464;2023-01-28T03:19:40;100889.40;;;-0.98;75.71
59588;BME280;45412;54.472;18.464;2023-01-28T03:22:51;100888.56;;;-1.00;75.75
59588;BME280;45412;54.472;18.464;2023-01-28T03:26:02;100885.61;;;-1.00;75.85
59588;BME280;45412;54.472;18.464;2023-01-28T03:29:14;100882.98;;;-0.99;75.92
59588;BME280;45412;54.472;18.464;2023-01-28T03:32:24;100881.44;;;-1.01;75.80
59588;BME280;45412;54.472;18.464;2023-01-28T03:35:33;100876.77;;;-1.03;75.91
59588;BME280;45412;54.472;18.464;2023-01-28T03:38:41;100878.42;;;-0.97;76.39
59588;BME280;45412;54.472;18.464;2023-01-28T03:41:31;100868.92;;;-0.93;76.44
59588;BME280;45412;54.472;18.464;2023-01-28T03:44:19;100870.39;;;-0.87;76.39
59588;BME280;45412;54.472;18.464;2023-01-28T03:47:30;100875.15;;;-0.80;76.89
59588;BME280;45412;54.472;18.464;2023-01-28T03:50:19;100874.71;;;-0.75;76.68
59588;BME280;45412;54.472;18.464;2023-01-28T03:53:15;100875.53;;;-0.72;76.51
59588;BME280;45412;54.472;18.464;2023-01-28T03:56:09;100874.48;;;-0.72;76.46
59588;BME280;45412;54.472;18.464;2023-01-28T03:59:06;100875.35;;;-0.71;76.62
59588;BME280;45412;54.472;18.464;2023-01-28T04:01:54;100880.23;;;-0.71;76.57
59588;BME280;45412;54.472;18.464;2023-01-28T04:04:43;100876.55;;;-0.71;76.59
59588;BME280;45412;54.472;18.464;2023-01-28T04:07:31;100875.70;;;-0.72;76.47
59588;BME280;45412;54.472;18.464;2023-01-28T04:10:33;100874.51;;;-0.73;76.80
59588;BME280;45412;54.472;18.464;2023-01-28T04:13:28;100874.30;;;-0.72;77.05
59588;BME280;45412;54.472;18.464;2023-01-28T04:16:17;100877.73;;;-0.69;77.12
59588;BME280;45412;54.472;18.464;2023-01-28T04:19:06;100879.61;;;-0.66;76.98
59588;BME280;45412;54.472;18.464;2023-01-28T04:21:55;100882.31;;;-0.62;76.90
59588;BME280;45412;54.472;18.464;2023-01-28T04:24:44;100883.86;;;-0.60;76.58
59588;BME280;45412;54.472;18.464;2023-01-28T04:27:32;100881.39;;;-0.59;76.62
59588;BME280;45412;54.472;18.464;2023-01-28T04:30:29;100879.56;;;-0.63;76.12
59588;BME280;45412;54.472;18.464;2023-01-28T04:33:26;100881.02;;;-0.67;76.27
59588;BME280;45412;54.472;18.464;2023-01-28T04:36:20;100880.89;;;-0.70;76.69
59588;BME280;45412;54.472;18.464;2023-01-28T04:39:41;100878.16;;;-0.72;76.83
59588;BME280;45412;54.472;18.464;2023-01-28T04:42:36;100873.17;;;-0.77;76.88
59588;BME280;45412;54.472;18.464;2023-01-28T04:45:46;100868.92;;;-0.83;76.67
59588;BME280;45412;54.472;18.464;2023-01-28T04:49:13;100866.50;;;-0.83;77.02
59588;BME280;45412;54.472;18.464;2023-01-28T04:52:01;100871.70;;;-0.82;76.89
59588;BME280;45412;54.472;18.464;2023-01-28T04:55:02;100873.00;;;-0.77;76.94
59588;BME280;45412;54.472;18.464;2023-01-28T04:57:50;100871.52;;;-0.72;76.77
59588;BME280;45412;54.472;18.464;2023-01-28T05:00:39;100868.87;;;-0.70;76.93
59588;BME280;45412;54.472;18.464;2023-01-28T05:03:29;100866.05;;;-0.68;76.99
59588;BME280;45412;54.472;18.464;2023-01-28T05:06:17;100868.10;;;-0.65;76.96
59588;BME280;45412;54.472;18.464;2023-01-28T05:09:07;100876.08;;;-0.63;76.58
59588;BME280;45412;54.472;18.464;2023-01-28T05:11:55;100875.52;;;-0.61;76.33
59588;BME280;45412;54.472;18.464;2023-01-28T05:14:43;100876.55;;;-0.61;75.97
59588;BME280;45412;54.472;18.464;2023-01-28T05:17:36;100875.87;;;-0.62;75.90
59588;BME280;45412;54.472;18.464;2023-01-28T05:20:25;100876.41;;;-0.63;74.70
59588;BME280;45412;54.472;18.464;2023-01-28T05:23:16;100879.35;;;-0.62;74.61
59588;BME280;45412;54.472;18.464;2023-01-28T05:26:14;100879.70;;;-0.62;74.50
59588;BME280;45412;54.472;18.464;2023-01-28T05:29:03;100882.32;;;-0.62;74.56
59588;BME280;45412;54.472;18.464;2023-01-28T05:31:51;100881.24;;;-0.60;74.30
59588;BME280;45412;54.472;18.464;2023-01-28T05:34:39;100884.98;;;-0.55;74.47
59588;BME280;45412;54.472;18.464;2023-01-28T05:37:31;100882.31;;;-0.52;74.15
59588;BME280;45412;54.472;18.464;2023-01-28T05:40:19;100880.75;;;-0.51;73.71
59588;BME280;45412;54.472;18.464;2023-01-28T05:43:07;100882.41;;;-0.47;74.04
59588;BME280;45412;54.472;18.464;2023-01-28T05:45:58;100881.48;;;-0.44;73.99
59588;BME280;45412;54.472;18.464;2023-01-28T05:48:52;100883.05;;;-0.45;73.47
59588;BME280;45412;54.472;18.464;2023-01-28T05:52:07;100883.40;;;-0.44;73.36
59588;BME280;45412;54.472;18.464;2023-01-28T05:54:55;100883.91;;;-0.44;73.15
59588;BME280;45412;54.472;18.464;2023-01-28T05:57:45;100880.61;;;-0.44;72.73
59588;BME280;45412;54.472;18.464;2023-01-28T06:00:34;100871.03;;;-0.44;73.03
59588;BME280;45412;54.472;18.464;2023-01-28T06:03:22;100872.79;;;-0.46;71.63
59588;BME280;45412;54.472;18.464;2023-01-28T06:06:11;100877.70;;;-0.47;72.04
59588;BME280;45412;54.472;18.464;2023-01-28T06:08:59;100881.40;;;-0.49;72.01
59588;BME280;45412;54.472;18.464;2023-01-28T06:11:49;100880.00;;;-0.50;72.18
59588;BME280;45412;54.472;18.464;2023-01-28T06:14:38;100872.05;;;-0.54;70.30
59588;BME280;45412;54.472;18.464;2023-01-28T06:17:34;100863.63;;;-0.59;69.12
59588;BME280;45412;54.472;18.464;2023-01-28T06:20:28;100866.37;;;-0.57;69.54
59588;BME280;45412;54.472;18.464;2023-01-28T06:23:17;100870.66;;;-0.54;69.78
59588;BME280;45412;54.472;18.464;2023-01-28T06:26:05;100868.14;;;-0.49;70.17
59588;BME280;45412;54.472;18.464;2023-01-28T06:28:55;100870.86;;;-0.46;70.42
59588;BME280;45412;54.472;18.464;2023-01-28T06:31:43;100873.08;;;-0.43;70.86
59588;BME280;45412;54.472;18.464;2023-01-28T06:34:31;100874.25;;;-0.41;70.94
59588;BME280;45412;54.472;18.464;2023-01-28T06:37:20;100875.81;;;-0.40;71.07
59588;BME280;45412;54.472;18.464;2023-01-28T06:40:08;100878.59;;;-0.40;71.35
59588;BME280;45412;54.472;18.464;2023-01-28T06:42:57;100883.46;;;-0.39;71.26
59588;BME280;45412;54.472;18.464;2023-01-28T06:45:45;100886.80;;;-0.40;71.58
59588;BME280;45412;54.472;18.464;2023-01-28T06:48:33;100886.11;;;-0.41;71.68
59588;BME280;45412;54.472;18.464;2023-01-28T06:51:22;100887.73;;;-0.43;71.71
59588;BME280;45412;54.472;18.464;2023-01-28T06:54:10;100891.20;;;-0.43;71.65
59588;BME280;45412;54.472;18.464;2023-01-28T06:56:58;100877.63;;;-0.45;71.44
59588;BME280;45412;54.472;18.464;2023-01-28T06:59:46;100888.52;;;-0.39;71.38
59588;BME280;45412;54.472;18.464;2023-01-28T07:02:34;100887.96;;;-0.37;70.81
59588;BME280;45412;54.472;18.464;2023-01-28T07:05:22;100887.41;;;-0.36;70.88
59588;BME280;45412;54.472;18.464;2023-01-28T07:08:10;100890.15;;;-0.32;71.00
59588;BME280;45412;54.472;18.464;2023-01-28T07:10:58;100892.73;;;-0.31;71.00
59588;BME280;45412;54.472;18.464;2023-01-28T07:13:47;100890.98;;;-0.30;71.22
59588;BME280;45412;54.472;18.464;2023-01-28T07:16:35;100885.20;;;-0.30;70.95
59588;BME280;45412;54.472;18.464;2023-01-28T07:19:22;100884.52;;;-0.30;70.70
59588;BME280;45412;54.472;18.464;2023-01-28T07:22:11;100891.12;;;-0.29;70.49
59588;BME280;45412;54.472;18.464;2023-01-28T07:24:58;100888.02;;;-0.30;69.28
59588;BME280;45412;54.472;18.464;2023-01-28T07:27:50;100886.89;;;-0.36;68.83
59588;BME280;45412;54.472;18.464;2023-01-28T07:30:39;100894.27;;;-0.39;69.58
59588;BME280;45412;54.472;18.464;2023-01-28T07:33:27;100899.45;;;-0.37;69.74
59588;BME280;45412;54.472;18.464;2023-01-28T07:36:15;100901.55;;;-0.37;69.04
59588;BME280;45412;54.472;18.464;2023-01-28T07:39:03;100895.85;;;-0.40;68.88
59588;BME280;45412;54.472;18.464;2023-01-28T07:41:52;100901.08;;;-0.39;68.25
59588;BME280;45412;54.472;18.464;2023-01-28T07:45:02;100903.58;;;-0.42;68.14
59588;BME280;45412;54.472;18.464;2023-01-28T07:47:56;100903.08;;;-0.44;67.82
59588;BME280;45412;54.472;18.464;2023-01-28T07:50:45;100900.13;;;-0.44;68.04
59588;BME280;45412;54.472;18.464;2023-01-28T07:53:35;100897.05;;;-0.47;67.82
59588;BME280;45412;54.472;18.464;2023-01-28T07:56:23;100899.21;;;-0.51;67.65
59588;BME280;45412;54.472;18.464;2023-01-28T07:59:11;100894.73;;;-0.55;67.53
59588;BME280;45412;54.472;18.464;2023-01-28T08:01:59;100891.05;;;-0.53;67.65
59588;BME280;45412;54.472;18.464;2023-01-28T08:04:48;100886.80;;;-0.49;67.59
59588;BME280;45412;54.472;18.464;2023-01-28T08:07:36;100887.05;;;-0.43;67.97
59588;BME280;45412;54.472;18.464;2023-01-28T08:10:24;100883.08;;;-0.37;67.82
59588;BME280;45412;54.472;18.464;2023-01-28T08:13:14;100873.91;;;-0.32;67.64
59588;BME280;45412;54.472;18.464;2023-01-28T08:16:02;100870.39;;;-0.30;67.21
59588;BME280;45412;54.472;18.464;2023-01-28T08:18:51;100874.29;;;-0.34;66.98
59588;BME280;45412;54.472;18.464;2023-01-28T08:21:39;100873.88;;;-0.40;67.00
59588;BME280;45412;54.472;18.464;2023-01-28T08:24:27;100878.58;;;-0.39;67.43
59588;BME280;45412;54.472;18.464;2023-01-28T08:27:16;100878.66;;;-0.34;67.79
59588;BME280;45412;54.472;18.464;2023-01-28T08:30:05;100883.74;;;-0.27;67.76
59588;BME280;45412;54.472;18.464;2023-01-28T08:32:58;100883.98;;;-0.21;67.23
59588;BME280;45412;54.472;18.464;2023-01-28T08:35:47;100883.80;;;-0.21;67.15
59588;BME280;45412;54.472;18.464;2023-01-28T08:38:35;100877.31;;;-0.27;67.18
59588;BME280;45412;54.472;18.464;2023-01-28T08:41:24;100889.68;;;-0.18;67.62
59588;BME280;45412;54.472;18.464;2023-01-28T08:44:12;100886.23;;;-0.11;67.70
59588;BME280;45412;54.472;18.464;2023-01-28T08:47:01;100886.41;;;-0.03;67.49
59588;BME280;45412;54.472;18.464;2023-01-28T08:49:49;100890.56;;;0.07;67.15
59588;BME280;45412;54.472;18.464;2023-01-28T08:52:37;100893.61;;;0.11;66.36
59588;BME280;45412;54.472;18.464;2023-01-28T08:55:27;100894.04;;;0.16;66.66
59588;BME280;45412;54.472;18.464;2023-01-28T08:58:17;100897.19;;;0.23;67.02
59588;BME280;45412;54.472;18.464;2023-01-28T09:01:05;100897.52;;;0.25;66.24
59588;BME280;45412;54.472;18.464;2023-01-28T09:03:53;100895.29;;;0.23;65.60
59588;BME280;45412;54.472;18.464;2023-01-28T09:06:41;100892.80;;;0.17;66.55
59588;BME280;45412;54.472;18.464;2023-01-28T09:09:30;100900.75;;;0.21;66.74
59588;BME280;45412;54.472;18.464;2023-01-28T09:12:17;100899.50;;;0.22;67.07
59588;BME280;45412;54.472;18.464;2023-01-28T09:15:06;100901.01;;;0.25;67.73
59588;BME280;45412;54.472;18.464;2023-01-28T09:17:57;100905.43;;;0.30;67.45
59588;BME280;45412;54.472;18.464;2023-01-28T09:20:46;100896.51;;;0.32;67.54
59588;BME280;45412;54.472;18.464;2023-01-28T09:23:36;100896.83;;;0.33;66.38
59588;BME280;45412;54.472;18.464;2023-01-28T09:26:25;100910.23;;;0.34;66.07
59588;BME280;45412;54.472;18.464;2023-01-28T09:29:13;100901.48;;;0.27;66.51
59588;BME280;45412;54.472;18.464;2023-01-28T09:32:00;100907.52;;;0.30;66.10
59588;BME280;45412;54.472;18.464;2023-01-28T09:34:50;100906.59;;;0.25;65.52
59588;BME280;45412;54.472;18.464;2023-01-28T09:37:38;100906.84;;;0.21;66.19
59588;BME280;45412;54.472;18.464;2023-01-28T09:40:43;100908.63;;;0.27;66.48
59588;BME280;45412;54.472;18.464;2023-01-28T09:46:40;100905.98;;;0.29;66.15
59588;BME280;45412;54.472;18.464;2023-01-28T09:49:43;100905.03;;;0.32;66.70
59588;BME280;45412;54.472;18.464;2023-01-28T09:52:36;100901.09;;;0.37;66.32
59588;BME280;45412;54.472;18.464;2023-01-28T09:55:34;100902.48;;;0.38;66.52
59588;BME280;45412;54.472;18.464;2023-01-28T09:58:23;100898.91;;;0.41;66.74
59588;BME280;45412;54.472;18.464;2023-01-28T10:01:45;100896.22;;;0.44;66.16
59588;BME280;45412;54.472;18.464;2023-01-28T10:07:49;100892.63;;;0.41;65.67
59588;BME280;45412;54.472;18.464;2023-01-28T10:10:49;100891.78;;;0.40;65.73
59588;BME280;45412;54.472;18.464;2023-01-28T10:13:52;100891.70;;;0.36;65.82
59588;BME280;45412;54.472;18.464;2023-01-28T10:16:56;100891.14;;;0.45;67.27
59588;BME280;45412;54.472;18.464;2023-01-28T10:19:52;100881.38;;;0.52;66.28
59588;BME280;45412;54.472;18.464;2023-01-28T10:22:49;100877.78;;;0.48;65.33
59588;BME280;45412;54.472;18.464;2023-01-28T10:25:41;100882.31;;;0.49;65.84
59588;BME280;45412;54.472;18.464;2023-01-28T10:28:34;100876.77;;;0.55;65.70
59588;BME280;45412;54.472;18.464;2023-01-28T10:31:30;100869.90;;;0.58;65.68
59588;BME280;45412;54.472;18.464;2023-01-28T10:34:20;100867.73;;;0.61;65.42
59588;BME280;45412;54.472;18.464;2023-01-28T10:37:13;100860.54;;;0.62;65.32
59588;BME280;45412;54.472;18.464;2023-01-28T10:40:02;100862.67;;;0.60;65.23
59588;BME280;45412;54.472;18.464;2023-01-28T10:42:51;100857.91;;;0.62;65.31
59588;BME280;45412;54.472;18.464;2023-01-28T10:46:06;100852.54;;;0.61;64.76
59588;BME280;45412;54.472;18.464;2023-01-28T10:49:12;100848.39;;;0.51;64.81
59588;BME280;45412;54.472;18.464;2023-01-28T10:52:13;100849.84;;;0.48;65.18
59588;BME280;45412;54.472;18.464;2023-01-28T10:55:05;100839.63;;;0.52;65.38
59588;BME280;45412;54.472;18.464;2023-01-28T10:57:53;100836.82;;;0.60;65.66
59588;BME280;45412;54.472;18.464;2023-01-28T11:00:41;100838.03;;;0.68;65.19
59588;BME280;45412;54.472;18.464;2023-01-28T11:03:30;100838.05;;;0.67;64.65
59588;BME280;45412;54.472;18.464;2023-01-28T11:06:29;100839.48;;;0.73;65.08
59588;BME280;45412;54.472;18.464;2023-01-28T11:09:29;100837.16;;;0.75;64.45
59588;BME280;45412;54.472;18.464;2023-01-28T11:12:25;100829.50;;;0.66;64.61
59588;BME280;45412;54.472;18.464;2023-01-28T11:15:16;100835.21;;;0.69;64.62
59588;BME280;45412;54.472;18.464;2023-01-28T11:18:37;100840.88;;;0.73;64.93
59588;BME280;45412;54.472;18.464;2023-01-28T11:21:25;100835.33;;;0.79;65.21
59588;BME280;45412;54.472;18.464;2023-01-28T11:24:23;100836.20;;;0.86;65.18
59588;BME280;45412;54.472;18.464;2023-01-28T11:27:16;100833.66;;;0.89;64.60
59588;BME280;45412;54.472;18.464;2023-01-28T11:30:21;100826.75;;;0.93;64.58
59588;BME280;45412;54.472;18.464;2023-01-28T11:33:23;100816.48;;;0.91;64.62
59588;BME280;45412;54.472;18.464;2023-01-28T11:36:18;100808.75;;;0.94;64.81
59588;BME280;45412;54.472;18.464;2023-01-28T11:39:35;100806.77;;;0.95;64.64
59588;BME280;45412;54.472;18.464;2023-01-28T11:42:23;100814.88;;;0.86;63.83
59588;BME280;45412;54.472;18.464;2023-01-28T11:45:20;100817.66;;;0.80;64.06
59588;BME280;45412;54.472;18.464;2023-01-28T11:49:01;100810.55;;;0.78;64.58
59588;BME280;45412;54.472;18.464;2023-01-28T11:54:51;100819.63;;;0.84;65.00
59588;BME280;45412;54.472;18.464;2023-01-28T12:08:21;100797.51;;;1.03;65.12
59588;BME280;45412;54.472;18.464;2023-01-28T12:17:38;100775.38;;;1.32;64.10
59588;BME280;45412;54.472;18.464;2023-01-28T12:21:11;100772.81;;;1.43;63.28
59588;BME280;45412;54.472;18.464;2023-01-28T12:30:56;100760.90;;;1.74;63.03
59588;BME280;45412;54.472;18.464;2023-01-28T12:40:38;100758.63;;;1.73;62.38
59588;BME280;45412;54.472;18.464;2023-01-28T12:44:00;100748.84;;;1.73;62.77
59588;BME280;45412;54.472;18.464;2023-01-28T12:47:00;100743.64;;;1.77;62.72
59588;BME280;45412;54.472;18.464;2023-01-28T12:50:23;100740.85;;;1.83;62.91
59588;BME280;45412;54.472;18.464;2023-01-28T12:53:32;100736.23;;;1.84;61.99
59588;BME280;45412;54.472;18.464;2023-01-28T12:56:50;100727.24;;;1.75;60.84
59588;BME280;45412;54.472;18.464;2023-01-28T12:59:49;100722.88;;;1.75;62.00
59588;BME280;45412;54.472;18.464;2023-01-28T13:02:45;100719.64;;;1.78;61.88
59588;BME280;45412;54.472;18.464;2023-01-28T13:05:43;100717.45;;;1.81;61.84
59588;BME280;45412;54.472;18.464;2023-01-28T13:08:33;100716.10;;;1.79;61.83
59588;BME280;45412;54.472;18.464;2023-01-28T13:11:34;100714.67;;;1.75;62.00
59588;BME280;45412;54.472;18.464;2023-01-28T13:14:29;100703.15;;;1.74;62.33
59588;BME280;45412;54.472;18.464;2023-01-28T13:17:35;100699.48;;;1.79;62.02
59588;BME280;45412;54.472;18.464;2023-01-28T13:20:50;100702.05;;;1.81;61.88
59588;BME280;45412;54.472;18.464;2023-01-28T13:23:45;100694.86;;;1.81;61.45
59588;BME280;45412;54.472;18.464;2023-01-28T13:26:51;100697.95;;;1.83;62.33
59588;BME280;45412;54.472;18.464;2023-01-28T13:29:46;100700.46;;;1.87;62.13
59588;BME280;45412;54.472;18.464;2023-01-28T13:32:35;100695.39;;;1.81;61.27
59588;BME280;45412;54.472;18.464;2023-01-28T13:35:38;100689.56;;;1.71;61.02
59588;BME280;45412;54.472;18.464;2023-01-28T13:38:27;100691.31;;;1.66;61.80
59588;BME280;45412;54.472;18.464;2023-01-28T13:41:17;100696.54;;;1.66;61.82
59588;BME280;45412;54.472;18.464;2023-01-28T13:50:19;100693.97;;;1.59;62.18
59588;BME280;45412;54.472;18.464;2023-01-28T13:53:34;100695.17;;;1.54;62.09
59588;BME280;45412;54.472;18.464;2023-01-28T13:56:31;100686.29;;;1.47;62.03
59588;BME280;45412;54.472;18.464;2023-01-28T14:06:59;100675.50;;;1.27;62.56
59588;BME280;45412;54.472;18.464;2023-01-28T14:13:23;100665.53;;;1.21;63.39
59588;BME280;45412;54.472;18.464;2023-01-28T14:19:32;100659.95;;;1.09;63.13
59588;BME280;45412;54.472;18.464;2023-01-28T14:22:21;100654.52;;;1.03;63.38
59588;BME280;45412;54.472;18.464;2023-01-28T14:25:18;100656.55;;;0.99;64.11
59588;BME280;45412;54.472;18.464;2023-01-28T14:28:16;100653.70;;;0.95;64.07
59588;BME280;45412;54.472;18.464;2023-01-28T14:31:36;100649.57;;;0.93;64.52
59588;BME280;45412;54.472;18.464;2023-01-28T14:34:33;100643.62;;;0.87;64.51
59588;BME280;45412;54.472;18.464;2023-01-28T14:37:28;100641.60;;;0.84;65.01
59588;BME280;45412;54.472;18.464;2023-01-28T14:40:17;100649.13;;;0.78;65.08
59588;BME280;45412;54.472;18.464;2023-01-28T14:43:13;100659.21;;;0.73;65.44
59588;BME280;45412;54.472;18.464;2023-01-28T14:46:44;100668.34;;;0.72;65.71
59588;BME280;45412;54.472;18.464;2023-01-28T14:50:05;100666.66;;;0.69;65.79
59588;BME280;45412;54.472;18.464;2023-01-28T14:53:20;100662.36;;;0.66;66.18
59588;BME280;45412;54.472;18.464;2023-01-28T15:02:22;100667.84;;;0.58;67.49
59588;BME280;45412;54.472;18.464;2023-01-28T15:05:20;100669.69;;;0.54;67.36
59588;BME280;45412;54.472;18.464;2023-01-28T15:08:22;100683.89;;;0.51;67.71
59588;BME280;45412;54.472;18.464;2023-01-28T15:11:14;100687.06;;;0.50;67.93
59588;BME280;45412;54.472;18.464;2023-01-28T15:14:03;100688.85;;;0.48;68.26
59588;BME280;45412;54.472;18.464;2023-01-28T15:16:58;100688.09;;;0.44;68.40
59588;BME280;45412;54.472;18.464;2023-01-28T15:19:46;100689.36;;;0.42;68.58
59588;BME280;45412;54.472;18.464;2023-01-28T15:22:34;100691.98;;;0.36;69.12
59588;BME280;45412;54.472;18.464;2023-01-28T15:25:28;100704.89;;;0.29;69.24
59588;BME280;45412;54.472;18.464;2023-01-28T15:28:37;100718.48;;;0.22;69.63
59588;BME280;45412;54.472;18.464;2023-01-28T15:31:34;100720.88;;;0.17;70.05
59588;BME280;45412;54.472;18.464;2023-01-28T15:34:26;100721.31;;;0.14;70.26
59588;BME280;45412;54.472;18.464;2023-01-28T15:37:17;100719.10;;;0.12;70.76
59588;BME280;45412;54.472;18.464;2023-01-28T15:40:16;100724.03;;;0.10;70.68
59588;BME280;45412;54.472;18.464;2023-01-28T15:43:04;100721.30;;;0.07;71.07
59588;BME280;45412;54.472;18.464;2023-01-28T15:45:55;100708.31;;;0.03;71.09
59588;BME280;45412;54.472;18.464;2023-01-28T15:48:48;100707.74;;;-0.03;71.24
59588;BME280;45412;54.472;18.464;2023-01-28T15:51:37;100713.73;;;-0.05;71.56
59588;BME280;45412;54.472;18.464;2023-01-28T15:54:27;100719.40;;;-0.09;71.74
59588;BME280;45412;54.472;18.464;2023-01-28T15:57:33;100714.91;;;-0.11;71.93
59588;BME280;45412;54.472;18.464;2023-01-28T16:00:23;100704.98;;;-0.11;72.07
59588;BME280;45412;54.472;18.464;2023-01-28T16:03:18;100698.33;;;-0.10;72.22
59588;BME280;45412;54.472;18.464;2023-01-28T16:06:18;100696.55;;;-0.09;72.37
59588;BME280;45412;54.472;18.464;2023-01-28T16:09:37;100693.92;;;-0.08;72.29
59588;BME280;45412;54.472;18.464;2023-01-28T16:12:25;100694.98;;;-0.09;72.67
59588;BME280;45412;54.472;18.464;2023-01-28T16:15:16;100694.55;;;-0.13;72.82
59588;BME280;45412;54.472;18.464;2023-01-28T16:18:24;100683.19;;;-0.20;72.98
59588;BME280;45412;54.472;18.464;2023-01-28T16:21:32;100690.14;;;-0.19;73.26
59588;BME280;45412;54.472;18.464;2023-01-28T16:24:31;100692.65;;;-0.22;73.34
59588;BME280;45412;54.472;18.464;2023-01-28T16:27:26;100686.60;;;-0.31;74.17
59588;BME280;45412;54.472;18.464;2023-01-28T16:30:15;100683.89;;;-0.43;74.18
59588;BME280;45412;54.472;18.464;2023-01-28T16:33:04;100697.05;;;-0.47;74.35
59588;BME280;45412;54.472;18.464;2023-01-28T16:35:52;100689.84;;;-0.52;74.74
59588;BME280;45412;54.472;18.464;2023-01-28T16:38:55;100675.91;;;-0.61;75.37